Time;durP1;ratioP1;P1;durP2;ratioP2;P2;SDS_P1;SDS_P2;PMS_P1;PMS_P2;Temp;Humidity;BMP_temperature;BMP_pressure;BME280_temperature;BME280_humidity;BME280_pressure;Samples;Min_cycle;Max_cycle;Signal;HPM_P1;HPM_P2
2022/01/16 00:00:55;;;;;;;84.70;37.47;;;2.10;99.90;;;;;;4961785;28;20069;-62
2022/01/16 00:06:06;;;;;;;92.38;43.00;;;2.00;99.90;;;;;;4958235;28;20047;-61
2022/01/16 00:08:32;;;;;;;86.38;39.17;;;2.00;99.90;;;;;;4949393;28;20126;-61
2022/01/16 00:10:59;;;;;;;89.95;39.63;;;2.10;99.90;;;;;;4982227;28;20047;-61
2022/01/16 00:13:26;;;;;;;91.43;41.10;;;2.00;99.90;;;;;;4941397;28;20493;-61
2022/01/16 00:15:52;;;;;;;92.22;41.05;;;2.00;99.90;;;;;;4968657;28;20644;-61
2022/01/16 00:18:27;;;;;;;93.40;42.58;;;1.90;99.90;;;;;;4960614;28;20177;-61
2022/01/16 00:20:54;;;;;;;94.95;43.22;;;2.00;99.90;;;;;;4966356;28;20494;-62
2022/01/16 00:23:25;;;;;;;100.65;45.55;;;1.90;99.90;;;;;;4928615;28;20105;-62
2022/01/16 00:25:54;;;;;;;97.68;43.55;;;2.00;99.90;;;;;;4963100;28;20091;-61
2022/01/16 00:28:21;;;;;;;94.43;45.70;;;1.90;99.90;;;;;;4965110;28;20039;-62
2022/01/16 00:30:48;;;;;;;103.82;44.55;;;1.90;99.90;;;;;;4967784;28;20047;-62
2022/01/16 00:33:15;;;;;;;108.90;47.08;;;1.90;99.90;;;;;;4970542;28;20054;-61
2022/01/16 00:35:41;;;;;;;104.43;44.83;;;1.90;99.90;;;;;;4944656;28;20046;-61
2022/01/16 00:38:07;;;;;;;102.13;46.25;;;1.90;99.90;;;;;;4973195;28;20611;-62
2022/01/16 00:40:34;;;;;;;96.15;44.08;;;1.90;99.90;;;;;;4970749;28;20063;-61
2022/01/16 00:43:00;;;;;;;102.00;44.47;;;1.90;99.90;;;;;;4962924;28;20046;-62
2022/01/16 00:45:29;;;;;;;94.82;42.47;;;1.90;99.90;;;;;;4974229;28;20496;-62
2022/01/16 00:47:55;;;;;;;101.47;43.63;;;1.90;99.90;;;;;;4960536;28;20050;-62
2022/01/16 00:50:22;;;;;;;105.25;44.15;;;1.90;99.90;;;;;;4962059;28;20122;-62
2022/01/16 00:52:48;;;;;;;91.28;43.85;;;1.90;99.90;;;;;;4994627;28;20084;-62
2022/01/16 00:55:14;;;;;;;95.97;44.17;;;1.90;99.90;;;;;;4966597;28;20043;-61
2022/01/16 00:57:40;;;;;;;97.38;43.03;;;1.80;99.90;;;;;;4968620;28;20441;-62
2022/01/16 01:00:07;;;;;;;88.25;43.35;;;1.80;99.90;;;;;;4963393;28;20108;-61
2022/01/16 01:02:33;;;;;;;83.40;39.38;;;1.90;99.90;;;;;;4974092;28;20051;-61
2022/01/16 01:04:59;;;;;;;77.93;37.53;;;1.80;99.90;;;;;;4938429;28;20191;-61
2022/01/16 01:07:25;;;;;;;85.47;39.85;;;1.80;99.90;;;;;;4957516;28;20054;-61
2022/01/16 01:09:51;;;;;;;82.60;39.63;;;1.80;99.90;;;;;;4960570;28;20090;-62
2022/01/16 01:12:28;;;;;;;76.63;39.38;;;1.70;99.90;;;;;;4972129;28;20497;-62
2022/01/16 01:15:07;;;;;;;75.65;36.58;;;1.70;99.90;;;;;;4959519;28;20098;-62
2022/01/16 01:17:44;;;;;;;84.97;39.95;;;1.60;99.90;;;;;;4957351;28;20578;-62
2022/01/16 01:20:14;;;;;;;80.53;37.90;;;1.60;99.90;;;;;;4961879;28;20047;-61
2022/01/16 01:22:41;;;;;;;94.80;40.58;;;1.50;99.90;;;;;;4949254;28;20123;-62
2022/01/16 01:25:11;;;;;;;92.20;40.15;;;1.60;99.90;;;;;;4967992;28;20047;-62
2022/01/16 01:27:37;;;;;;;96.60;41.38;;;1.50;99.90;;;;;;4962276;28;20058;-62
2022/01/16 01:30:07;;;;;;;110.70;45.53;;;1.60;99.90;;;;;;4956566;28;20066;-62
2022/01/16 01:32:36;;;;;;;103.32;43.95;;;1.60;99.90;;;;;;4965279;28;20034;-61
2022/01/16 01:35:03;;;;;;;104.28;42.40;;;1.60;99.90;;;;;;5002939;28;20040;-61
2022/01/16 01:37:29;;;;;;;108.78;46.50;;;1.60;99.90;;;;;;4957219;28;20584;-61
2022/01/16 01:39:55;;;;;;;103.93;44.95;;;1.60;99.90;;;;;;4956542;28;20409;-61
2022/01/16 01:42:24;;;;;;;117.05;48.58;;;1.60;99.90;;;;;;4971068;28;20600;-61
2022/01/16 01:53:04;;;;;;;132.05;51.30;;;1.70;99.90;;;;;;4972614;28;20059;-62
2022/01/16 01:55:30;;;;;;;131.55;51.28;;;1.70;99.90;;;;;;4970365;28;20116;-62
2022/01/16 01:57:56;;;;;;;143.43;50.38;;;1.70;99.90;;;;;;4961575;28;20134;-61
2022/01/16 02:00:26;;;;;;;144.98;51.22;;;1.70;99.90;;;;;;5005458;28;20104;-61
2022/01/16 02:05:19;;;;;;;174.93;58.25;;;1.70;99.90;;;;;;4979800;28;20051;-63
2022/01/16 02:07:46;;;;;;;162.18;53.72;;;1.70;99.90;;;;;;4967731;28;20050;-61
2022/01/16 02:10:12;;;;;;;160.32;54.72;;;1.80;99.90;;;;;;4977959;28;20047;-62
2022/01/16 02:12:42;;;;;;;176.52;58.22;;;1.80;99.90;;;;;;4978548;28;20053;-62
2022/01/16 02:15:36;;;;;;;194.57;59.72;;;1.80;99.90;;;;;;4973668;28;20053;-64
2022/01/16 02:31:38;;;;;;;173.63;58.78;;;1.90;99.90;;;;;;4960068;28;20093;-62
2022/01/16 02:36:56;;;;;;;200.43;61.60;;;2.00;99.90;;;;;;4971181;28;20064;-62
2022/01/16 02:39:26;;;;;;;213.35;60.97;;;2.00;99.90;;;;;;4958767;28;20047;-62
2022/01/16 02:41:54;;;;;;;203.60;60.72;;;2.00;99.90;;;;;;4976785;28;20051;-61
2022/01/16 02:44:30;;;;;;;182.95;61.38;;;2.00;99.90;;;;;;4960181;28;20054;-62
2022/01/16 02:46:57;;;;;;;229.43;66.93;;;2.00;99.90;;;;;;4971523;28;20417;-61
2022/01/16 02:49:31;;;;;;;194.68;60.60;;;2.10;99.90;;;;;;5006753;28;20051;-61
2022/01/16 02:52:04;;;;;;;200.68;61.55;;;2.00;99.90;;;;;;4963857;28;20047;-62
2022/01/16 02:54:35;;;;;;;195.95;57.65;;;2.10;99.90;;;;;;4970169;28;20042;-62
2022/01/16 02:57:03;;;;;;;204.20;61.97;;;2.10;99.90;;;;;;4971336;28;20046;-62
2022/01/16 02:59:29;;;;;;;217.95;62.70;;;2.10;99.90;;;;;;4968961;28;20050;-62
2022/01/16 03:01:56;;;;;;;251.95;64.82;;;2.10;99.90;;;;;;4960163;28;20097;-62
2022/01/16 03:04:22;;;;;;;234.13;63.08;;;2.10;99.90;;;;;;4960971;28;20070;-62
2022/01/16 03:06:49;;;;;;;282.75;64.63;;;2.10;99.90;;;;;;4970120;28;20527;-61
2022/01/16 03:09:16;;;;;;;260.85;65.28;;;2.10;99.90;;;;;;4961793;28;20138;-62
2022/01/16 03:11:48;;;;;;;247.68;64.32;;;2.10;99.90;;;;;;4991472;28;20109;-61
2022/01/16 03:14:17;;;;;;;234.90;64.03;;;2.10;99.90;;;;;;4960064;28;20051;-61
2022/01/16 03:16:48;;;;;;;251.68;63.75;;;2.20;99.90;;;;;;4962894;28;20089;-61
2022/01/16 03:22:03;;;;;;;241.95;61.90;;;2.10;99.90;;;;;;4959283;28;20039;-62
2022/01/16 03:24:36;;;;;;;253.93;63.97;;;2.10;99.90;;;;;;4959015;28;20122;-61
2022/01/16 03:27:11;;;;;;;252.18;63.33;;;2.10;99.90;;;;;;4967073;28;20054;-61
2022/01/16 03:29:38;;;;;;;260.98;65.10;;;2.10;99.90;;;;;;4953719;28;20063;-61
2022/01/16 03:32:07;;;;;;;242.93;62.42;;;2.00;99.90;;;;;;4963779;28;20361;-61
2022/01/16 03:34:34;;;;;;;227.95;63.45;;;2.10;99.90;;;;;;4953986;28;20039;-62
2022/01/16 03:37:01;;;;;;;270.45;67.60;;;2.10;99.90;;;;;;4948377;28;20050;-62
2022/01/16 03:39:27;;;;;;;231.45;63.55;;;2.00;99.90;;;;;;4961550;28;20054;-61
2022/01/16 03:41:55;;;;;;;230.75;62.08;;;2.10;99.90;;;;;;4985399;28;20097;-61
2022/01/16 03:44:22;;;;;;;237.70;62.92;;;2.10;99.90;;;;;;4963048;28;20059;-62
2022/01/16 03:46:48;;;;;;;218.95;61.65;;;2.10;99.90;;;;;;4962054;28;20062;-61
2022/01/16 03:49:20;;;;;;;214.35;63.40;;;2.20;99.90;;;;;;4947772;28;20082;-61
2022/01/16 03:51:48;;;;;;;219.18;64.07;;;2.20;99.90;;;;;;4968278;28;20143;-57
2022/01/16 03:54:18;;;;;;;234.23;62.97;;;2.20;99.90;;;;;;4960870;28;20047;-60
2022/01/16 03:56:44;;;;;;;245.27;64.18;;;2.20;99.90;;;;;;5001310;28;20479;-58
2022/01/16 03:59:11;;;;;;;232.57;63.00;;;2.30;99.90;;;;;;4957061;28;20108;-58
2022/01/16 04:01:38;;;;;;;213.75;62.60;;;2.30;99.90;;;;;;5009297;28;20528;-57
2022/01/16 04:04:04;;;;;;;206.63;60.25;;;2.30;99.90;;;;;;4959687;28;20047;-58
2022/01/16 04:06:31;;;;;;;210.45;62.90;;;2.30;99.90;;;;;;4965154;28;20176;-57
2022/01/16 04:08:57;;;;;;;208.80;60.88;;;2.30;99.90;;;;;;4968959;28;20063;-57
2022/01/16 04:11:25;;;;;;;227.18;60.17;;;2.40;99.90;;;;;;4947878;28;20181;-61
2022/01/16 04:13:54;;;;;;;212.82;60.47;;;2.40;99.90;;;;;;4934455;28;20046;-61
2022/01/16 04:16:22;;;;;;;204.40;62.95;;;2.40;99.90;;;;;;4971895;28;20485;-62
2022/01/16 04:18:51;;;;;;;195.30;58.35;;;2.40;99.90;;;;;;4970915;28;20045;-62
2022/01/16 04:21:22;;;;;;;197.05;62.53;;;2.40;99.90;;;;;;4962483;28;20052;-62
2022/01/16 04:23:50;;;;;;;186.32;57.33;;;2.40;99.90;;;;;;4966712;28;20047;-61
2022/01/16 04:26:17;;;;;;;183.73;57.70;;;2.50;99.90;;;;;;4997073;28;20074;-61
2022/01/16 04:28:46;;;;;;;215.20;61.67;;;2.50;99.90;;;;;;4969689;28;20518;-61
2022/01/16 04:31:14;;;;;;;222.38;61.38;;;2.50;99.90;;;;;;4955382;28;20143;-62
2022/01/16 04:33:40;;;;;;;203.60;59.80;;;2.50;99.90;;;;;;4957491;28;20466;-62
2022/01/16 04:36:07;;;;;;;195.50;60.17;;;2.60;99.90;;;;;;4929866;28;20423;-61
2022/01/16 04:38:34;;;;;;;193.88;62.78;;;2.60;99.90;;;;;;4965220;28;20043;-62
2022/01/16 04:43:47;;;;;;;200.98;60.45;;;2.60;99.90;;;;;;4962044;28;20486;-62
2022/01/16 04:46:14;;;;;;;200.18;60.28;;;2.60;99.90;;;;;;4959961;28;20070;-62
2022/01/16 04:48:40;;;;;;;204.32;60.30;;;2.60;99.90;;;;;;4961040;28;20058;-62
2022/01/16 04:51:06;;;;;;;213.20;62.97;;;2.70;99.90;;;;;;4934616;28;20139;-62
2022/01/16 04:53:32;;;;;;;199.23;59.70;;;2.70;99.90;;;;;;4956533;28;20118;-61
2022/01/16 04:55:59;;;;;;;201.25;62.63;;;2.70;99.90;;;;;;4962799;28;20361;-61
2022/01/16 04:58:25;;;;;;;202.40;64.32;;;2.70;99.90;;;;;;4966838;28;20070;-61
2022/01/16 05:00:51;;;;;;;193.90;60.78;;;2.70;99.90;;;;;;4964732;28;20050;-61
2022/01/16 05:03:17;;;;;;;197.95;59.50;;;2.70;99.90;;;;;;4964466;28;20619;-62
2022/01/16 05:05:43;;;;;;;195.65;59.97;;;2.80;99.90;;;;;;4963111;28;20570;-62
2022/01/16 05:08:09;;;;;;;186.35;59.85;;;2.80;99.90;;;;;;4964573;28;20051;-61
2022/01/16 05:10:35;;;;;;;192.32;59.75;;;2.80;99.90;;;;;;4963559;28;20063;-61
2022/01/16 05:13:27;;;;;;;187.45;59.83;;;2.80;99.90;;;;;;4961785;28;20133;-61
2022/01/16 05:18:40;;;;;;;179.98;62.70;;;2.80;99.90;;;;;;4986576;28;20106;-62
2022/01/16 05:21:07;;;;;;;183.68;58.80;;;2.80;99.90;;;;;;4963731;28;20047;-61
2022/01/16 05:23:34;;;;;;;189.27;57.40;;;2.90;99.90;;;;;;4983537;28;20051;-61
2022/01/16 05:26:01;;;;;;;169.43;58.05;;;2.90;99.90;;;;;;4960269;28;20514;-62
2022/01/16 05:28:27;;;;;;;174.30;59.75;;;2.90;99.90;;;;;;4963209;28;20447;-62
2022/01/16 05:30:54;;;;;;;175.65;58.20;;;2.90;99.90;;;;;;4965128;28;20105;-62
2022/01/16 05:33:20;;;;;;;165.25;58.13;;;2.90;99.90;;;;;;4957868;28;20043;-62
2022/01/16 05:35:47;;;;;;;173.05;57.25;;;2.90;99.90;;;;;;4966018;28;20112;-62
2022/01/16 05:38:13;;;;;;;157.93;56.50;;;2.90;99.90;;;;;;4960023;28;20129;-61
2022/01/16 05:40:39;;;;;;;162.45;57.90;;;2.90;99.90;;;;;;4965597;28;20050;-62
2022/01/16 05:43:06;;;;;;;153.40;55.72;;;2.90;99.90;;;;;;4972612;28;20502;-61
2022/01/16 05:45:32;;;;;;;147.93;54.72;;;3.00;99.90;;;;;;4952280;28;20640;-61
2022/01/16 05:47:59;;;;;;;166.43;56.30;;;3.00;99.90;;;;;;4971776;28;20100;-61
2022/01/16 05:50:25;;;;;;;170.50;58.50;;;3.00;99.90;;;;;;4997703;28;20250;-62
2022/01/16 05:52:51;;;;;;;168.52;59.47;;;3.00;99.90;;;;;;4963116;28;20047;-61
2022/01/16 05:55:18;;;;;;;169.27;57.60;;;3.00;99.90;;;;;;4957208;28;20173;-61
2022/01/16 05:57:45;;;;;;;164.40;58.75;;;3.00;99.90;;;;;;4969386;28;20050;-62
2022/01/16 06:00:13;;;;;;;160.05;56.55;;;3.10;99.90;;;;;;4966646;28;20066;-62
2022/01/16 06:02:40;;;;;;;160.00;56.97;;;3.10;99.90;;;;;;4963610;28;20050;-61
2022/01/16 06:05:06;;;;;;;162.90;55.95;;;3.10;99.90;;;;;;4969151;28;20489;-62
2022/01/16 06:07:33;;;;;;;170.95;63.08;;;3.10;99.90;;;;;;4981388;28;20467;-61
2022/01/16 06:09:59;;;;;;;161.45;55.78;;;3.10;99.90;;;;;;4956124;28;20075;-61
2022/01/16 06:12:25;;;;;;;174.63;58.10;;;3.10;99.90;;;;;;4955507;28;20086;-62
2022/01/16 06:14:51;;;;;;;177.95;59.90;;;3.10;99.90;;;;;;4971245;28;20046;-62
2022/01/16 06:17:17;;;;;;;175.07;60.63;;;3.10;99.90;;;;;;4983092;28;20038;-61
2022/01/16 06:19:43;;;;;;;168.32;58.63;;;3.10;99.90;;;;;;4974076;28;20130;-61
2022/01/16 06:22:09;;;;;;;186.10;61.03;;;3.10;99.90;;;;;;4959512;28;20043;-61
2022/01/16 06:24:35;;;;;;;181.02;61.45;;;3.10;99.90;;;;;;4938196;28;20086;-62
2022/01/16 06:27:02;;;;;;;184.32;63.17;;;3.10;99.90;;;;;;4960942;28;20548;-61
2022/01/16 06:29:28;;;;;;;202.00;63.88;;;3.10;99.90;;;;;;4967782;28;20493;-61
2022/01/16 06:31:54;;;;;;;210.30;66.88;;;3.10;99.90;;;;;;4968363;28;20051;-62
2022/01/16 06:34:20;;;;;;;214.57;61.75;;;3.10;99.90;;;;;;4964099;28;20100;-62
2022/01/16 06:36:46;;;;;;;193.90;62.22;;;3.20;99.90;;;;;;4967302;28;20050;-62
2022/01/16 06:39:13;;;;;;;205.48;61.70;;;3.20;99.90;;;;;;4970532;28;20068;-62
2022/01/16 06:41:40;;;;;;;196.75;65.28;;;3.20;99.90;;;;;;4964851;28;20044;-61
2022/01/16 06:44:06;;;;;;;195.70;59.63;;;3.20;99.90;;;;;;4962622;28;20807;-62
2022/01/16 06:46:33;;;;;;;193.57;63.33;;;3.20;99.90;;;;;;4968282;28;20058;-62
2022/01/16 06:48:59;;;;;;;202.00;65.43;;;3.20;99.90;;;;;;4956488;28;20089;-62
2022/01/16 06:51:25;;;;;;;192.77;61.65;;;3.30;99.90;;;;;;5013610;28;20524;-62
2022/01/16 06:53:53;;;;;;;209.25;65.20;;;3.20;99.90;;;;;;4981648;28;20042;-62
2022/01/16 06:56:20;;;;;;;186.52;63.40;;;3.30;99.90;;;;;;4945695;28;20429;-62
2022/01/16 06:58:46;;;;;;;200.25;63.72;;;3.30;99.90;;;;;;4954391;28;20612;-57
2022/01/16 07:01:13;;;;;;;195.02;62.97;;;3.30;99.90;;;;;;4947393;28;20043;-58
2022/01/16 07:03:40;;;;;;;187.18;64.20;;;3.30;99.90;;;;;;4997968;28;20544;-57
2022/01/16 07:06:06;;;;;;;195.93;61.72;;;3.30;99.90;;;;;;4977829;28;20163;-62
2022/01/16 07:08:32;;;;;;;179.20;63.97;;;3.40;99.90;;;;;;4969894;28;20082;-57
2022/01/16 07:11:00;;;;;;;191.77;64.75;;;3.40;99.90;;;;;;4998042;28;20052;-58
2022/01/16 07:13:28;;;;;;;190.55;60.97;;;3.40;99.90;;;;;;4989896;28;20286;-56
2022/01/16 07:15:55;;;;;;;179.73;62.58;;;3.40;99.90;;;;;;5023579;28;20044;-58
2022/01/16 07:18:22;;;;;;;182.23;62.20;;;3.40;99.90;;;;;;5017376;28;20044;-57
2022/01/16 07:20:48;;;;;;;187.25;63.40;;;3.50;99.90;;;;;;5003385;28;20519;-57
2022/01/16 07:23:15;;;;;;;183.00;63.80;;;3.50;99.90;;;;;;4975082;28;20065;-57
2022/01/16 07:25:42;;;;;;;186.68;62.28;;;3.50;99.90;;;;;;4977054;28;20136;-57
2022/01/16 07:28:09;;;;;;;190.20;63.60;;;3.50;99.90;;;;;;4945770;28;20051;-57
2022/01/16 07:30:37;;;;;;;190.57;64.60;;;3.60;99.90;;;;;;4944806;28;20547;-57
2022/01/16 07:33:04;;;;;;;187.27;64.93;;;3.60;99.90;;;;;;4964652;28;20057;-57
2022/01/16 07:35:31;;;;;;;182.40;60.95;;;3.70;99.90;;;;;;4961432;28;20061;-57
2022/01/16 07:37:57;;;;;;;168.23;60.67;;;3.70;99.90;;;;;;4955120;28;20510;-57
2022/01/16 07:40:24;;;;;;;171.68;60.63;;;3.70;99.90;;;;;;4939946;28;20558;-57
2022/01/16 07:42:51;;;;;;;164.82;60.58;;;3.70;99.90;;;;;;4960557;28;20077;-57
2022/01/16 07:45:18;;;;;;;176.40;62.83;;;3.80;99.90;;;;;;4990076;28;20044;-57
2022/01/16 07:47:44;;;;;;;172.52;60.22;;;3.80;99.90;;;;;;4949574;28;20134;-57
2022/01/16 07:50:11;;;;;;;177.43;63.70;;;3.80;99.90;;;;;;4953975;28;20800;-58
2022/01/16 07:52:38;;;;;;;172.98;60.15;;;3.80;99.90;;;;;;5023838;28;20398;-57
2022/01/16 07:55:05;;;;;;;179.65;63.70;;;3.90;99.90;;;;;;5006310;28;20055;-58
2022/01/16 07:57:31;;;;;;;170.10;61.80;;;3.90;99.90;;;;;;4961357;28;20422;-58
2022/01/16 07:59:57;;;;;;;176.57;63.28;;;3.90;99.90;;;;;;4970659;28;20050;-57
2022/01/16 08:02:23;;;;;;;166.95;61.67;;;3.90;99.90;;;;;;4984227;28;20174;-58
2022/01/16 08:04:49;;;;;;;156.93;60.35;;;4.00;99.90;;;;;;4965745;28;20100;-59
2022/01/16 08:07:15;;;;;;;171.85;63.05;;;4.00;99.90;;;;;;4974178;28;20040;-57
2022/01/16 08:09:43;;;;;;;171.25;61.47;;;4.00;99.90;;;;;;4960104;28;20052;-59
2022/01/16 08:12:11;;;;;;;159.57;61.08;;;4.00;99.90;;;;;;4994469;28;20054;-57
2022/01/16 08:14:37;;;;;;;162.30;62.03;;;4.10;99.90;;;;;;4998115;28;20057;-58
2022/01/16 08:17:04;;;;;;;162.85;62.75;;;4.10;99.90;;;;;;4954372;28;20129;-58
2022/01/16 08:19:30;;;;;;;162.65;58.22;;;4.10;99.90;;;;;;4963732;28;20556;-57
2022/01/16 08:21:56;;;;;;;147.52;60.00;;;4.20;99.90;;;;;;4952076;28;20043;-59
2022/01/16 08:24:24;;;;;;;154.95;61.42;;;4.20;99.90;;;;;;4944300;28;20047;-57
2022/01/16 08:26:51;;;;;;;142.20;59.50;;;4.30;99.90;;;;;;4989108;28;20117;-58
2022/01/16 08:29:18;;;;;;;155.50;62.70;;;4.30;99.90;;;;;;4977808;28;20208;-58
2022/01/16 08:31:44;;;;;;;158.48;61.58;;;4.30;99.90;;;;;;4969681;28;20050;-58
2022/01/16 08:34:10;;;;;;;145.30;60.83;;;4.40;99.90;;;;;;4960672;28;20071;-57
2022/01/16 08:36:36;;;;;;;151.20;60.78;;;4.40;99.90;;;;;;4968092;28;20042;-57
2022/01/16 08:39:03;;;;;;;144.52;62.63;;;4.50;99.90;;;;;;4965382;28;20047;-57
2022/01/16 08:41:30;;;;;;;148.27;62.08;;;4.50;99.90;;;;;;5025501;28;20130;-57
2022/01/16 08:43:56;;;;;;;139.43;62.28;;;4.50;99.90;;;;;;4968961;28;20053;-57
2022/01/16 08:46:22;;;;;;;135.48;59.30;;;4.50;99.90;;;;;;4986688;28;20042;-56
2022/01/16 08:48:50;;;;;;;129.98;59.97;;;4.60;99.90;;;;;;4981981;28;20404;-56
2022/01/16 08:51:16;;;;;;;122.05;58.85;;;4.60;99.90;;;;;;5001481;28;20114;-55
2022/01/16 08:53:45;;;;;;;130.10;57.63;;;4.60;99.90;;;;;;4982272;28;20074;-57
2022/01/16 08:56:12;;;;;;;133.23;60.03;;;4.70;99.90;;;;;;4969848;28;20043;-57
2022/01/16 08:58:38;;;;;;;128.07;58.45;;;4.60;99.90;;;;;;4968607;28;20047;-57
2022/01/16 09:01:05;;;;;;;131.48;62.47;;;4.70;99.90;;;;;;4959103;28;20061;-58
2022/01/16 09:03:31;;;;;;;118.93;56.03;;;4.70;99.90;;;;;;4929952;28;20085;-57
2022/01/16 09:05:57;;;;;;;112.65;55.75;;;4.80;99.90;;;;;;4962175;28;20138;-57
2022/01/16 09:08:23;;;;;;;118.20;54.95;;;4.80;99.90;;;;;;4988624;28;20052;-57
2022/01/16 09:10:49;;;;;;;114.28;57.63;;;4.90;99.90;;;;;;4947570;28;20074;-57
2022/01/16 09:13:16;;;;;;;112.95;54.28;;;5.00;99.90;;;;;;4966177;28;20063;-57
2022/01/16 09:15:44;;;;;;;103.82;53.03;;;5.00;99.90;;;;;;5007367;28;20051;-56
2022/01/16 09:18:11;;;;;;;100.53;53.13;;;5.10;99.90;;;;;;4986240;28;20043;-58
2022/01/16 09:20:38;;;;;;;100.15;52.58;;;5.20;99.90;;;;;;4954032;28;20062;-58
2022/01/16 09:23:05;;;;;;;90.68;50.63;;;5.20;99.90;;;;;;4961459;28;20055;-58
2022/01/16 09:25:31;;;;;;;91.68;51.58;;;5.30;99.90;;;;;;5003805;28;20090;-59
2022/01/16 09:27:57;;;;;;;90.63;50.67;;;5.40;99.90;;;;;;5030470;28;20212;-63
2022/01/16 09:30:25;;;;;;;99.03;50.38;;;5.40;99.90;;;;;;4947014;28;20130;-63
2022/01/16 09:32:51;;;;;;;80.38;47.20;;;5.50;99.90;;;;;;4947544;28;20058;-62
2022/01/16 09:35:18;;;;;;;75.90;47.47;;;5.50;99.90;;;;;;4939030;28;20561;-63
2022/01/16 09:37:45;;;;;;;78.30;45.20;;;5.60;99.90;;;;;;4978280;28;20134;-63
2022/01/16 09:40:14;;;;;;;74.47;46.75;;;5.60;99.90;;;;;;4946809;28;20086;-61
2022/01/16 09:42:41;;;;;;;75.55;45.67;;;5.70;99.90;;;;;;4960656;28;20051;-62
2022/01/16 09:45:10;;;;;;;79.63;46.67;;;5.70;99.90;;;;;;4963322;28;20054;-64
2022/01/16 09:47:37;;;;;;;79.43;46.83;;;5.70;99.90;;;;;;4968977;28;20124;-63
2022/01/16 09:50:07;;;;;;;75.40;46.53;;;5.60;99.90;;;;;;4947195;28;20055;-63
2022/01/16 09:52:40;;;;;;;77.38;44.80;;;5.70;99.90;;;;;;4938894;29;20113;-61
2022/01/16 09:55:07;;;;;;;79.75;46.75;;;5.70;99.90;;;;;;4968753;28;20046;-62
2022/01/16 09:57:33;;;;;;;76.43;45.63;;;5.60;99.90;;;;;;5002299;28;20065;-63
2022/01/16 10:00:00;;;;;;;72.30;44.50;;;5.60;99.90;;;;;;4982226;28;20086;-64
2022/01/16 10:02:26;;;;;;;70.68;44.92;;;5.70;99.90;;;;;;4963260;28;20059;-62
2022/01/16 10:04:53;;;;;;;73.28;44.80;;;5.70;99.90;;;;;;4963376;28;20054;-63
2022/01/16 10:07:20;;;;;;;74.85;44.50;;;5.60;99.90;;;;;;4946091;28;20585;-64
2022/01/16 10:10:09;;;;;;;74.10;44.58;;;5.60;99.90;;;;;;4930117;28;20070;-63
2022/01/16 10:12:40;;;;;;;73.18;43.75;;;5.70;99.90;;;;;;4944676;28;20051;-63
2022/01/16 10:15:26;;;;;;;73.15;43.67;;;5.60;99.90;;;;;;4934556;28;20495;-63
2022/01/16 10:17:55;;;;;;;69.35;43.85;;;5.60;99.90;;;;;;4946912;28;20047;-62
2022/01/16 10:20:22;;;;;;;78.70;44.15;;;5.60;99.90;;;;;;4960788;28;20051;-62
2022/01/16 10:22:50;;;;;;;74.38;44.42;;;5.60;99.90;;;;;;4948005;28;20394;-62
2022/01/16 10:25:37;;;;;;;74.18;43.22;;;5.60;99.90;;;;;;4983269;28;20552;-62
2022/01/16 10:28:13;;;;;;;70.28;44.05;;;5.60;99.90;;;;;;4953452;28;20051;-64
2022/01/16 10:30:45;;;;;;;69.78;42.55;;;5.60;99.90;;;;;;4947525;28;20134;-62
2022/01/16 10:33:15;;;;;;;;;;;5.60;99.90;;;;;;4946058;29;20100;-63
2022/01/16 10:35:44;;;;;;;66.57;39.15;;;5.60;99.90;;;;;;4943248;28;19929;-61
2022/01/16 10:38:19;;;;;;;66.47;40.85;;;5.60;99.90;;;;;;4996171;28;20149;-61
2022/01/16 10:40:50;;;;;;;74.50;43.25;;;5.70;99.90;;;;;;4954211;28;20073;-61
2022/01/16 10:43:35;;;;;;;67.38;43.20;;;5.60;99.90;;;;;;4971584;28;20104;-62
2022/01/16 10:46:01;;;;;;;65.65;40.60;;;5.70;99.90;;;;;;4946953;28;20077;-62
2022/01/16 10:48:28;;;;;;;67.82;41.85;;;5.70;99.90;;;;;;4942513;28;20573;-62
2022/01/16 10:50:54;;;;;;;65.15;39.95;;;5.80;99.90;;;;;;4946018;28;20055;-62
2022/01/16 10:53:26;;;;;;;57.60;40.90;;;5.80;99.90;;;;;;4967542;28;20581;-62
2022/01/16 10:55:55;;;;;;;58.50;39.10;;;5.80;99.90;;;;;;4957168;28;20053;-62
2022/01/16 10:58:26;;;;;;;58.00;37.80;;;5.80;99.90;;;;;;4962079;28;20057;-62
2022/01/16 11:01:03;;;;;;;60.65;38.13;;;5.80;99.90;;;;;;4976053;28;20085;-62
2022/01/16 11:03:38;;;;;;;98.68;65.32;;;5.90;99.90;;;;;;4962129;28;20050;-63
2022/01/16 11:06:05;;;;;;;54.40;36.55;;;6.00;99.90;;;;;;4961398;28;20086;-62
2022/01/16 11:08:33;;;;;;;53.90;35.88;;;6.00;99.90;;;;;;4962151;28;20057;-63
2022/01/16 11:11:00;;;;;;;50.70;32.78;;;6.00;99.90;;;;;;4956360;28;20053;-65
2022/01/16 11:13:32;;;;;;;53.70;32.28;;;6.00;99.90;;;;;;4979512;28;20049;-63
2022/01/16 11:16:04;;;;;;;49.65;31.67;;;6.00;99.90;;;;;;4964087;28;20073;-62
2022/01/16 11:18:35;;;;;;;53.40;31.73;;;6.00;99.90;;;;;;4951871;28;20444;-62
2022/01/16 11:26:01;;;;;;;46.13;27.52;;;6.10;99.90;;;;;;4959784;28;20466;-63
2022/01/16 11:28:28;;;;;;;38.50;25.77;;;6.10;99.90;;;;;;4960430;28;20372;-63
2022/01/16 11:30:57;;;;;;;40.28;25.90;;;6.10;99.90;;;;;;4959976;28;20553;-63
2022/01/16 11:33:26;;;;;;;41.85;26.38;;;6.20;99.90;;;;;;4968952;28;20581;-63
2022/01/16 11:35:59;;;;;;;37.60;24.92;;;6.20;99.90;;;;;;4967542;28;20125;-63
2022/01/16 11:38:37;;;;;;;36.88;23.75;;;6.20;99.90;;;;;;4971552;28;20055;-63
2022/01/16 11:41:15;;;;;;;32.67;21.92;;;6.20;99.90;;;;;;4947383;28;20120;-63
2022/01/16 11:43:47;;;;;;;31.20;21.52;;;6.20;99.90;;;;;;4960287;28;20050;-63
2022/01/16 11:46:18;;;;;;;36.57;20.50;;;6.20;99.90;;;;;;4961229;28;20673;-63
2022/01/16 11:48:47;;;;;;;31.58;20.48;;;6.30;99.90;;;;;;4960285;28;20046;-59
2022/01/16 11:51:32;;;;;;;30.60;19.02;;;6.30;99.90;;;;;;4982755;28;20071;-59
2022/01/16 11:54:01;;;;;;;31.08;19.17;;;6.30;99.90;;;;;;4980038;28;20126;-59
2022/01/16 11:56:39;;;;;;;28.58;17.75;;;6.30;99.90;;;;;;4962939;28;20047;-59
2022/01/16 11:59:14;;;;;;;31.77;17.75;;;6.30;99.90;;;;;;4965367;28;20057;-59
2022/01/16 12:01:54;;;;;;;31.48;17.58;;;6.30;99.90;;;;;;4942037;28;20402;-58
2022/01/16 12:04:29;;;;;;;26.20;16.08;;;6.40;99.90;;;;;;4965063;28;20062;-60
2022/01/16 12:07:13;;;;;;;30.42;15.93;;;6.30;99.90;;;;;;4961544;28;20055;-59
2022/01/16 12:12:11;;;;;;;23.55;15.02;;;6.40;99.90;;;;;;4973520;28;20072;-59
2022/01/16 12:14:55;;;;;;;;;;;6.40;99.90;;;;;;4953031;28;20051;-58
2022/01/16 12:17:31;;;;;;;25.35;14.68;;;6.40;99.90;;;;;;4993772;28;19952;-58
2022/01/16 12:20:13;;;;;;;21.65;13.75;;;6.40;99.90;;;;;;5035926;28;20083;-58
2022/01/16 12:22:42;;;;;;;24.55;13.63;;;6.40;99.90;;;;;;5001171;28;20518;-58
2022/01/16 12:25:51;;;;;;;20.90;13.70;;;6.50;99.90;;;;;;4991117;28;20111;-59
2022/01/16 12:28:22;;;;;;;19.15;12.40;;;6.50;99.90;;;;;;4978263;28;20048;-59
2022/01/16 12:30:59;;;;;;;23.08;12.10;;;6.50;99.90;;;;;;5006298;28;20086;-58
2022/01/16 12:33:37;;;;;;;22.35;11.88;;;6.60;99.90;;;;;;5001717;28;20514;-58
2022/01/16 12:36:09;;;;;;;17.60;12.25;;;6.60;99.90;;;;;;4999389;28;20123;-59
2022/01/16 12:38:41;;;;;;;21.70;11.77;;;6.60;99.90;;;;;;4992630;28;20051;-59
2022/01/16 12:41:16;;;;;;;;;;;6.60;99.90;;;;;;4995871;28;20505;-60
2022/01/16 12:44:07;;;;;;;19.92;10.98;;;6.70;99.90;;;;;;4998853;28;19922;-58
2022/01/16 12:46:40;;;;;;;17.88;10.82;;;6.70;99.90;;;;;;4999640;28;20111;-58
2022/01/16 12:49:18;;;;;;;18.63;12.30;;;6.60;99.90;;;;;;4994680;28;20100;-59
2022/01/16 12:51:50;;;;;;;18.85;10.90;;;6.70;99.90;;;;;;5000226;28;20156;-58
2022/01/16 12:54:20;;;;;;;;;;;6.70;99.90;;;;;;5038674;28;20106;-63
2022/01/16 12:56:52;;;;;;;17.17;11.40;;;6.70;99.90;;;;;;5010973;28;19958;-63
2022/01/16 12:59:21;;;;;;;18.80;10.80;;;6.70;99.90;;;;;;4988222;28;20047;-64
2022/01/16 13:01:53;;;;;;;17.95;10.70;;;6.80;99.90;;;;;;4979707;28;20510;-64
2022/01/16 13:04:31;;;;;;;17.33;10.80;;;6.80;99.90;;;;;;4978979;28;20046;-64
2022/01/16 13:07:03;;;;;;;18.80;10.77;;;6.80;99.90;;;;;;4967570;28;20859;-64
2022/01/16 13:09:29;;;;;;;;;;;6.80;99.90;;;;;;4958153;28;20700;-59
2022/01/16 13:12:01;;;;;;;18.63;10.07;;;6.80;99.90;;;;;;4972344;28;20369;-63
2022/01/16 13:14:35;;;;;;;18.70;10.82;;;6.80;99.90;;;;;;4956728;28;20074;-61
2022/01/16 13:17:08;;;;;;;19.75;11.20;;;6.90;99.90;;;;;;4985017;28;20702;-63
2022/01/16 13:19:49;;;;;;;21.55;11.60;;;6.90;99.90;;;;;;4987987;28;20391;-58
2022/01/16 13:22:16;;;;;;;19.13;12.00;;;6.90;99.90;;;;;;4990016;28;20105;-58
2022/01/16 13:24:51;;;;;;;16.30;11.13;;;6.90;99.90;;;;;;4984631;28;20046;-58
2022/01/16 13:27:22;;;;;;;19.75;12.05;;;6.90;99.90;;;;;;4963639;28;20452;-58